• Join FlightAware (Why Join?)
  • Login
  • US Flag GB Flag 
10:38 EDT


 

Airport Tracker/Info


-or-


 

Live Flight TrackerFlight Track Log ✈ UAL4234 ✈ 18-Apr-2013 ✈ KIAH - KRDU

Flight Track Log - Related Links

Times and Time Zones

All times are in EDT time to prevent confusion due to time zone crossing. See the UAL4234 flight status page for this flight to view local times or setup timezone preferences in your user account.

Time Position Orientation Groundspeed Altitude Reporting Facility
EDT Latitude Longitude Course Direction KTS MPH feet Rate Location/Type
18:40 29.9764 -95.3417 97° East 180 207 700  Level Houston Center
18:40 29.9539 -95.3733 231° Southwest 190 219 1,900 1,680 Climbing Houston Center
18:41 29.9044 -95.3361 147° Southeast 275 316 3,500 1,500 Climbing Houston Center
18:42 29.8897 -95.3036 118° Southeast 273 314 3,900 2,280 Climbing Houston Center
18:43 29.9111 -94.7995 95° East  Level FlightAware Approximate
18:43 29.8544 -95.2231 117° Southeast 279 321 6,800  Level Houston Center
18:44 29.8998 -94.6650 97° East  Level FlightAware Approximate
18:44 29.8286 -95.1375 109° East 281 323 9,000  Level Houston Center
18:45 29.8850 -94.5310 97° East  Level FlightAware Approximate
18:45 29.8069 -95.0475 105° East 288 331 11,500  Level Houston Center
18:46 29.8150 -94.9467 85° East 312 359 12,600 1,200 Climbing Houston Center
18:47 29.8228 -94.8297 86° East 359 413 14,100 1,800 Climbing Houston Center
18:48 29.8328 -94.6969 85° East 347 399 16,400 1,500 Climbing Houston Center
18:49 29.8431 -94.5753 84° East 377 434 17,300 1,200 Climbing Houston Center
18:50 29.8514 -94.4478 86° East 395 455 19,000 1,500 Climbing Houston Center
18:51 29.8617 -94.3233 85° East 393 452 20,500 1,020 Climbing Houston Center
18:52 29.8581 -94.1933 92° East 407 468 21,200 540 Climbing Houston Center
18:53 29.8544 -94.0533 92° East 438 504 21,700 480 Climbing Houston Center
18:54 29.8714 -93.8775 84° East 463 533 22,300 540 Climbing Houston Center
18:55 29.9028 -93.7300 76° East 477 549 22,900 480 Climbing Houston Center
18:56 29.9417 -93.5800 73° East 487 560 23,400 540 Climbing Houston Center
18:57 29.9828 -93.4169 74° East 490 564 24,100 660 Climbing Houston Center
18:58 30.0203 -93.2669 74° East 489 563 24,800 720 Climbing Houston Center
18:59 30.0581 -93.1150 74° East 498 573 25,700 1,080 Climbing Houston Center
19:00 30.0950 -92.9681 74° East 484 557 27,100 1,200 Climbing Houston Center
19:01 30.1306 -92.8236 74° East 475 547 28,300 1,260 Climbing Houston Center
19:02 30.1728 -92.6492 74° East 472 543 29,800 1,260 Climbing Houston Center
19:03 30.2081 -92.5056 74° East 469 540 31,000 1,140 Climbing Houston Center
19:04 30.2428 -92.3636 74° East 464 534 32,200 1,140 Climbing Houston Center
19:05 30.2781 -92.2219 74° East 462 532 33,400 1,080 Climbing Houston Center
19:07 30.3119 -92.0831 74° East 454 522 34,500 960 Climbing Houston Center
19:08 30.3517 -91.9158 75° East 452 520 35,500 720 Climbing Houston Center
19:09 30.3858 -91.7750 74° East 455 524 36,000 480 Climbing Houston Center
19:10 30.4181 -91.6450 74° East 459 528 36,500 480 Climbing Houston Center
19:11 30.4578 -91.4703 75° East 466 536 37,000 240 Climbing Houston Center
19:12 30.4936 -91.3200 74° East 481 554 37,000  Level Houston Center
19:13 30.5308 -91.1650 74° East 496 571 37,000  Level Houston Center
19:14 30.5672 -91.0072 75° East 506 582 37,000  Level Houston Center
19:15 30.6039 -90.8469 75° East 513 590 37,000  Level Houston Center
19:16 30.6422 -90.6836 75° East 521 600 37,000  Level Houston Center
19:17 30.6847 -90.4886 76° East 520 598 37,000  Level Houston Center
19:18 30.7219 -90.3264 75° East 518 596 37,000  Level Houston Center
19:19 30.7586 -90.1642 75° East 517 595 37,000  Level Houston Center
19:20 30.7950 -90.0008 75° East 518 596 37,000  Level Houston Center
19:21 30.8344 -89.8400 74° East 514 592 37,000  Level Houston Center
19:22 30.8947 -89.6903 65° Northeast 510 587 37,000  Level Houston Center
19:23 30.9572 -89.5403 64° Northeast 511 588 37,000  Level Houston Center
19:24 31.0308 -89.3597 65° Northeast 511 588 37,000  Level Houston Center
19:25 31.0906 -89.2094 65° Northeast 510 587 37,000  Level Houston Center
19:26 31.1506 -89.0600 65° Northeast 507 583 37,000  Level Houston Center
19:27 31.2158 -88.8992 65° Northeast 507 583 37,000  Level Houston Center
19:28 31.2775 -88.7503 64° Northeast 506 582 37,000  Level Houston Center
19:29 31.3386 -88.5992 65° Northeast 509 586 37,000  Level Houston Center
19:30 31.3994 -88.4469 65° Northeast 511 588 37,000  Level Houston Center
19:31 31.4583 -88.2969 65° Northeast 503 579 37,000  Level Houston Center
19:32 31.4853 -88.2369 62° Northeast 495 570 37,000  Level Atlanta Center
19:33 31.5425 -88.0933 65° Northeast 495 570 37,000  Level Atlanta Center
19:34 31.6014 -87.9472 65° Northeast 495 570 37,000  Level Atlanta Center
19:35 31.6558 -87.8031 66° East 495 570 37,000  Level Atlanta Center
19:36 31.7125 -87.6592 65° Northeast 495 570 37,000  Level Atlanta Center
19:37 31.7708 -87.5150 65° Northeast 489 563 37,000  Level Atlanta Center
19:38 31.8269 -87.3681 66° East 489 563 37,000  Level Atlanta Center
19:39 31.8833 -87.2061 68° East 490 564 37,000  Level Atlanta Center
19:40 31.9414 -87.0614 65° Northeast 490 564 37,000  Level Atlanta Center
19:41 31.9992 -86.9139 65° Northeast 490 564 37,000  Level Atlanta Center
19:42 32.0547 -86.7639 66° East 490 564 37,000  Level Atlanta Center
19:43 32.1097 -86.6331 64° Northeast 495 570 37,000  Level Atlanta Center
19:44 32.1647 -86.4875 66° East 495 570 37,000  Level Atlanta Center
19:45 32.2242 -86.3369 65° Northeast 472 543 37,000  Level Atlanta Center
19:46 32.2908 -86.2231 55° Northeast 460 529 37,000  Level Atlanta Center
19:47 32.3828 -86.1050 47° Northeast 469 540 37,000  Level Atlanta Center
19:48 32.4700 -85.9911 48° Northeast 469 540 37,000  Level Atlanta Center
19:49 32.5658 -85.8700 47° Northeast 477 549 37,000  Level Atlanta Center
19:50 32.6531 -85.7511 49° Northeast 483 556 37,000  Level Atlanta Center
19:51 32.7422 -85.6367 47° Northeast 478 550 37,000  Level Atlanta Center
19:52 32.8294 -85.5147 50° Northeast 478 550 37,000  Level Atlanta Center
19:53 32.9183 -85.3997 47° Northeast 478 550 37,000  Level Atlanta Center
19:54 33.0094 -85.2800 48° Northeast 473 544 37,000  Level Atlanta Center
19:55 33.0961 -85.1644 48° Northeast 473 544 37,000  Level Atlanta Center
19:56 33.1911 -85.0342 49° Northeast 473 544 37,000  Level Atlanta Center
19:57 33.2797 -84.9133 49° Northeast 478 550 37,000  Level Atlanta Center
19:58 33.3661 -84.7950 49° Northeast 478 550 37,000  Level Atlanta Center
19:59 33.4544 -84.6736 49° Northeast 478 550 37,000  Level Atlanta Center
20:00 33.5364 -84.5597 49° Northeast 472 543 37,000  Level Atlanta Center
20:01 33.6183 -84.4256 54° Northeast 478 550 37,000  Level Atlanta Center
20:02 33.6333 -84.2633 84° East 472 543 37,000  Level Atlanta Center
20:03 33.6419 -84.0961 86° East 477 549 37,000  Level Atlanta Center
20:04 33.6503 -83.9289 87° East 495 570 37,000  Level Atlanta Center
20:05 33.6561 -83.7617 88° East 495 570 37,000  Level Atlanta Center
20:06 33.6619 -83.5919 88° East 500 575 37,000  Level Atlanta Center
20:07 33.6675 -83.4272 88° East 493 567 37,000  Level Atlanta Center
20:08 33.6747 -83.2575 87° East 498 573 37,000 -240 Level Atlanta Center
20:09 33.6819 -83.0928 87° East 498 573 36,600 -480 Descending Atlanta Center
20:10 33.6869 -82.9253 88° East 498 573 36,100 -420 Descending Atlanta Center
20:11 33.6897 -82.7806 89° East 492 566 35,800 -360 Descending Atlanta Center
20:12 33.6961 -82.6156 87° East 499 574 35,400 -480 Descending Atlanta Center
20:14 33.7014 -82.2858 89° East 517 595 34,500 -540 Descending Jacksonville Center
20:15 33.7131 -82.1261 85° East 512 589 34,000 -480 Descending Jacksonville Center
20:16 33.7350 -81.9661 81° East 495 570 33,600 -480 Descending Jacksonville Center
20:17 33.7756 -81.8108 73° East 477 549 33,100 -360 Descending Jacksonville Center
20:18 33.8494 -81.6797 56° Northeast 462 532 33,000 -60 Descending Jacksonville Center
20:19 33.9253 -81.5536 54° Northeast 462 532 33,000  Level Jacksonville Center
20:20 34.0053 -81.4222 54° Northeast 467 537 33,000 -60 Level Jacksonville Center
20:21 34.0808 -81.2928 55° Northeast 473 544 32,900 -840 Descending Jacksonville Center
20:22 34.1542 -81.1661 55° Northeast 473 544 31,400 -1,620 Descending Jacksonville Center
20:23 34.2297 -81.0392 54° Northeast 473 544 29,700 -1,740 Descending Jacksonville Center
20:24 34.3008 -80.9119 56° Northeast 473 544 27,900 -1,800 Descending Jacksonville Center
20:25 34.3778 -80.7717 56° Northeast 480 552 26,200 -1,320 Descending Jacksonville Center
20:27 34.5250 -80.5175 55° Northeast 482 555 24,000 -780 Descending Washington Center
20:28 34.5994 -80.3833 56° Northeast 476 548 23,900 -360 Descending Washington Center
20:29 34.6825 -80.2367 55° Northeast 476 548 23,300 -480 Descending Washington Center
20:30 34.7586 -80.1019 55° Northeast 476 548 23,000 -180 Descending Washington Center
20:31 34.8436 -80.0003 44° Northeast 476 548 23,000 -420 Level Washington Center
20:32 34.9394 -79.8942 42° Northeast 466 536 22,200 -900 Descending Washington Center
20:33 35.0331 -79.7875 43° Northeast 456 525 21,200 -1,020 Descending Washington Center
20:34 35.1283 -79.6858 41° Northeast 456 525 20,200 -960 Descending Washington Center
20:35 35.2233 -79.5864 41° Northeast 456 525 19,300 -1,020 Descending Washington Center
20:35 35.2747 -79.5508 29° Northeast 444 511 18,800 -1,200 Descending Washington Center
20:36 35.3258 -79.5175 28° Northeast 439 505 18,300 -960 Descending Washington Center
20:37 35.4350 -79.4364 31° Northeast 407 468 17,300 -1,260 Descending Washington Center
20:38 35.5056 -79.3811 33° Northeast 344 396 15,800 -1,920 Descending Washington Center
20:39 35.5647 -79.2919 51° Northeast 329 379 13,800 -1,800 Descending Washington Center
20:40 35.6197 -79.1947 55° Northeast 328 377 12,000 -1,620 Descending Washington Center
20:41 35.6767 -79.1053 52° Northeast 309 356 10,400 -1,620 Descending Washington Center
20:42 35.7253 -79.0178 56° Northeast 306 352 8,900 -1,200 Descending Washington Center
20:43 35.7753 -78.9408 51° Northeast 287 330 8,000 -900 Descending Washington Center
20:43 35.7753 -78.9408 51° Northeast 305 351 8,000  Level Washington Center
20:44 35.8331 -78.8894 36° Northeast 257 296 8,000 -420 Level Washington Center
20:45 35.9044 -78.8744 10° North 252 290 7,200 -1,140 Descending Washington Center
20:46 35.9661 -78.8333 28° Northeast 255 293 5,800 -1,320 Descending Washington Center
20:47 36.0158 -78.7736 44° Northeast 246 283 4,600 -1,200 Descending Washington Center
20:48 36.0214 -78.7122 84° East 210 242 3,400 -1,200 Descending Washington Center
20:49 35.9678 -78.6972 167° South 190 219 2,200 -960 Descending Washington Center
20:50 35.9356 -78.7319 221° Southwest 143 165 1,500 -720 Descending Washington Center